createdAt,value
2022-12-22T00:01:49.559Z,28.97
2022-12-22T00:04:35.854Z,31.47
2022-12-22T00:07:21.951Z,28.37
2022-12-22T00:10:07.353Z,28.33
2022-12-22T00:12:54.929Z,29.97
2022-12-22T00:15:40.858Z,30.00
2022-12-22T00:18:31.944Z,27.30
2022-12-22T00:21:17.597Z,29.30
2022-12-22T00:24:03.351Z,26.80
2022-12-22T00:26:51.128Z,31.97
2022-12-22T00:29:39.336Z,35.03
2022-12-22T00:32:27.416Z,36.53
2022-12-22T00:35:12.923Z,34.60
2022-12-22T00:37:58.615Z,32.23
2022-12-22T00:40:46.502Z,27.03
2022-12-22T00:43:32.814Z,31.10
2022-12-22T00:46:21.953Z,35.97
2022-12-22T00:49:08.806Z,32.00
2022-12-22T00:51:54.772Z,31.33
2022-12-22T00:54:41.866Z,35.73
2022-12-22T00:57:35.110Z,28.67
2022-12-22T01:00:22.512Z,27.67
2022-12-22T01:03:09.939Z,32.97
2022-12-22T01:05:56.014Z,33.80
2022-12-22T01:08:42.037Z,35.87
2022-12-22T01:11:27.983Z,40.77
2022-12-22T01:14:13.461Z,38.70
2022-12-22T01:16:59.173Z,35.00
2022-12-22T01:19:46.485Z,39.83
2022-12-22T01:22:36.858Z,38.77
2022-12-22T01:25:30.852Z,38.83
2022-12-22T01:28:16.256Z,43.97
2022-12-22T01:31:02.360Z,43.23
2022-12-22T01:33:48.645Z,40.37
2022-12-22T01:36:36.116Z,38.10
2022-12-22T01:39:22.691Z,41.10
2022-12-22T01:42:08.720Z,41.53
2022-12-22T01:44:54.181Z,43.27
2022-12-22T01:47:53.432Z,42.13
2022-12-22T01:50:44.332Z,39.57
2022-12-22T01:53:35.449Z,44.83
2022-12-22T01:56:21.400Z,41.33
2022-12-22T01:59:10.616Z,47.57
2022-12-22T02:01:57.772Z,45.07
2022-12-22T02:04:48.395Z,46.53
2022-12-22T02:07:49.182Z,40.73
2022-12-22T02:10:49.686Z,43.90
2022-12-22T02:13:48.537Z,50.93
2022-12-22T02:16:39.731Z,49.20
2022-12-22T02:19:33.880Z,48.97
2022-12-22T02:22:28.372Z,41.70
2022-12-22T02:25:21.725Z,43.80
2022-12-22T02:28:12.147Z,47.13
2022-12-22T02:30:59.802Z,52.43
2022-12-22T02:33:45.846Z,48.93
2022-12-22T02:36:40.345Z,49.63
2022-12-22T02:39:33.203Z,57.27
2022-12-22T02:42:28.681Z,53.23
2022-12-22T02:45:23.289Z,50.17
2022-12-22T02:48:17.781Z,45.60
2022-12-22T02:51:08.643Z,45.37
2022-12-22T02:53:56.107Z,44.10
2022-12-22T02:56:42.145Z,45.13
2022-12-22T02:59:27.654Z,45.43
2022-12-22T03:02:15.475Z,50.97
2022-12-22T03:05:01.368Z,52.00
2022-12-22T03:07:47.216Z,46.47
2022-12-22T03:10:33.157Z,51.17
2022-12-22T03:13:19.060Z,53.50
2022-12-22T03:16:04.611Z,51.03
2022-12-22T03:18:51.712Z,47.27
2022-12-22T03:21:37.241Z,44.93
2022-12-22T03:24:23.104Z,49.10
2022-12-22T03:26:51.387Z,50.03
2022-12-22T03:29:19.760Z,45.87
2022-12-22T03:31:48.155Z,51.10
2022-12-22T03:34:17.896Z,51.33
2022-12-22T03:36:46.212Z,39.53
2022-12-22T03:39:14.793Z,56.97
2022-12-22T03:42:00.283Z,57.70
2022-12-22T03:44:45.884Z,50.80
2022-12-22T03:47:14.671Z,45.17
2022-12-22T03:49:44.381Z,46.20
2022-12-22T03:52:12.719Z,49.27
2022-12-22T03:54:41.352Z,49.30
2022-12-22T03:57:10.080Z,50.60
2022-12-22T03:59:38.442Z,52.13
2022-12-22T04:02:08.346Z,46.63
2022-12-22T04:04:36.950Z,44.73
2022-12-22T04:07:06.722Z,49.87
2022-12-22T04:09:35.087Z,48.83
2022-12-22T04:12:20.856Z,50.03
2022-12-22T04:14:49.282Z,47.50
2022-12-22T04:17:17.642Z,44.97
2022-12-22T04:19:46.053Z,49.97
2022-12-22T04:22:15.712Z,43.90
2022-12-22T04:24:44.063Z,49.43
2022-12-22T04:27:12.377Z,48.53
2022-12-22T04:29:40.763Z,50.67
2022-12-22T04:32:09.083Z,48.53
2022-12-22T04:34:38.258Z,44.97
2022-12-22T04:37:14.938Z,40.90
2022-12-22T04:39:47.135Z,45.23
2022-12-22T04:42:15.475Z,43.63
2022-12-22T04:44:44.071Z,50.40
2022-12-22T04:47:12.474Z,52.73
2022-12-22T04:49:40.958Z,46.07
2022-12-22T04:52:09.359Z,42.33
2022-12-22T04:54:37.709Z,44.57
2022-12-22T04:57:07.363Z,47.60
2022-12-22T04:59:35.655Z,46.53
2022-12-22T05:02:04.061Z,40.73
2022-12-22T05:04:32.656Z,49.23
2022-12-22T05:07:00.986Z,56.90
2022-12-22T05:09:29.355Z,43.93
2022-12-22T05:11:57.671Z,48.20
2022-12-22T05:14:27.401Z,45.00
2022-12-22T05:16:55.729Z,44.53
2022-12-22T05:19:30.452Z,45.37
2022-12-22T05:21:59.163Z,51.60
2022-12-22T05:24:27.499Z,47.90
2022-12-22T05:26:55.830Z,45.70
2022-12-22T05:29:24.317Z,45.97
2022-12-22T05:31:54.391Z,46.90
2022-12-22T05:34:22.673Z,46.83
2022-12-22T05:36:50.961Z,45.80
2022-12-22T05:39:19.341Z,49.97
2022-12-22T05:41:47.899Z,45.43
2022-12-22T05:44:16.445Z,44.13
2022-12-22T05:46:44.880Z,46.90
2022-12-22T05:49:14.816Z,47.13
2022-12-22T05:51:43.149Z,55.80
2022-12-22T05:54:11.764Z,57.00
2022-12-22T05:56:40.051Z,50.33
2022-12-22T05:59:08.362Z,49.40
2022-12-22T06:01:36.771Z,47.77
2022-12-22T06:04:05.657Z,47.87
2022-12-22T06:06:36.009Z,49.67
2022-12-22T06:09:04.586Z,50.50
2022-12-22T06:11:32.913Z,52.63
2022-12-22T06:14:01.247Z,52.60
2022-12-22T06:16:29.624Z,48.63
2022-12-22T06:18:58.020Z,51.37
2022-12-22T06:21:26.378Z,48.00
2022-12-22T06:23:56.254Z,48.43
2022-12-22T06:26:24.533Z,42.23
2022-12-22T06:28:53.044Z,50.47
2022-12-22T06:31:21.618Z,46.40
2022-12-22T06:33:50.025Z,49.93
2022-12-22T06:36:18.445Z,44.87
2022-12-22T06:38:46.828Z,45.60
2022-12-22T06:41:36.567Z,48.47
2022-12-22T06:44:03.980Z,47.60
2022-12-22T06:46:32.284Z,42.60
2022-12-22T06:49:00.702Z,47.53
2022-12-22T06:51:29.027Z,46.30
2022-12-22T06:53:57.488Z,49.97
2022-12-22T06:56:27.224Z,47.70
2022-12-22T06:58:55.564Z,46.47
2022-12-22T07:01:24.746Z,46.60
2022-12-22T07:04:08.063Z,43.53
2022-12-22T07:06:36.623Z,42.33
2022-12-22T07:09:05.528Z,40.00
2022-12-22T07:11:35.258Z,46.33
2022-12-22T07:14:03.643Z,44.70
2022-12-22T07:16:32.189Z,49.00
2022-12-22T07:19:00.654Z,46.73
2022-12-22T07:21:29.020Z,45.00
2022-12-22T07:23:57.336Z,43.20
2022-12-22T07:26:25.800Z,49.03
2022-12-22T07:28:55.566Z,50.00
2022-12-22T07:31:24.472Z,50.47
2022-12-22T07:33:53.414Z,57.80
2022-12-22T07:36:22.069Z,71.40
2022-12-22T07:41:51.753Z,49.73
2022-12-22T07:44:21.584Z,48.37
2022-12-22T07:46:50.067Z,41.57
2022-12-22T07:49:55.919Z,42.33
2022-12-22T07:52:24.274Z,45.87
2022-12-22T07:54:52.621Z,51.27
2022-12-22T07:57:20.961Z,49.83
2022-12-22T07:59:50.629Z,50.20
2022-12-22T08:02:19.137Z,38.83
2022-12-22T08:04:47.629Z,40.73
2022-12-22T08:07:16.262Z,47.13
2022-12-22T08:09:44.580Z,50.20
2022-12-22T08:12:13.024Z,47.97
2022-12-22T08:14:43.205Z,43.53
2022-12-22T08:17:13.010Z,39.42
2022-12-22T08:19:41.644Z,49.00
2022-12-22T08:22:09.879Z,46.90
2022-12-22T08:24:38.251Z,49.13
2022-12-22T08:27:12.073Z,51.03
2022-12-22T08:29:44.380Z,48.20
2022-12-22T08:32:14.473Z,43.87
2022-12-22T08:34:43.406Z,46.53
2022-12-22T08:37:15.256Z,47.00
2022-12-22T08:39:45.489Z,47.27
2022-12-22T08:42:17.204Z,61.77
2022-12-22T08:44:46.042Z,68.87
2022-12-22T08:47:17.392Z,58.10
2022-12-22T08:49:45.875Z,55.30
2022-12-22T08:52:18.684Z,51.63
2022-12-22T08:54:47.523Z,41.97
2022-12-22T08:57:15.807Z,55.27
2022-12-22T08:59:44.120Z,56.60
2022-12-22T09:02:12.467Z,52.03
2022-12-22T09:04:42.149Z,59.27
2022-12-22T09:07:11.538Z,61.37
2022-12-22T09:09:40.276Z,48.43
2022-12-22T09:12:09.339Z,55.97
2022-12-22T09:14:37.723Z,46.60
2022-12-22T09:17:06.231Z,49.67
2022-12-22T09:19:34.604Z,50.30
2022-12-22T09:22:04.700Z,51.53
2022-12-22T09:24:33.045Z,57.93
2022-12-22T09:27:03.422Z,55.33
2022-12-22T09:29:31.817Z,49.80
2022-12-22T09:32:00.212Z,50.03
2022-12-22T09:34:28.665Z,46.50
2022-12-22T09:36:57.000Z,44.73
2022-12-22T09:39:29.032Z,42.30
2022-12-22T09:41:59.356Z,47.87
2022-12-22T09:48:59.803Z,49.63
2022-12-22T09:51:28.813Z,47.27
2022-12-22T09:54:00.012Z,45.17
2022-12-22T09:56:30.772Z,49.97
2022-12-22T09:58:59.234Z,47.47
2022-12-22T10:01:40.359Z,47.17
2022-12-22T10:04:18.142Z,42.73
2022-12-22T10:06:53.281Z,43.37
2022-12-22T10:12:18.431Z,45.80
2022-12-22T10:14:48.991Z,56.67
2022-12-22T10:17:22.679Z,52.17
2022-12-22T10:19:54.351Z,46.23
2022-12-22T10:22:31.685Z,51.63
2022-12-22T10:25:02.599Z,46.90
2022-12-22T10:27:41.983Z,42.20
2022-12-22T10:30:21.394Z,47.67
2022-12-22T10:33:07.520Z,40.90
2022-12-22T10:35:50.932Z,49.30
2022-12-22T10:38:23.241Z,49.20
2022-12-22T10:40:59.965Z,47.47
2022-12-22T10:43:35.787Z,48.60
2022-12-22T10:46:05.410Z,50.03
2022-12-22T10:48:35.921Z,54.30
2022-12-22T10:51:07.742Z,44.00
2022-12-22T10:53:42.758Z,41.87
2022-12-22T10:56:21.566Z,52.87
2022-12-22T10:58:54.514Z,50.17
2022-12-22T11:01:28.573Z,41.57
2022-12-22T11:03:57.595Z,44.87
2022-12-22T11:06:26.196Z,46.13
2022-12-22T11:09:01.527Z,37.77
2022-12-22T11:11:49.226Z,50.70
2022-12-22T11:14:29.853Z,47.10
2022-12-22T11:17:04.028Z,43.77
2022-12-22T11:19:50.262Z,41.37
2022-12-22T11:22:29.627Z,43.67
2022-12-22T11:25:23.047Z,40.97
2022-12-22T11:28:00.388Z,41.33
2022-12-22T11:30:39.971Z,35.17
2022-12-22T11:33:21.555Z,33.53
2022-12-22T11:35:58.437Z,34.77
2022-12-22T11:38:39.710Z,31.73
2022-12-22T11:41:23.829Z,28.17
2022-12-22T11:44:05.800Z,32.37
2022-12-22T11:46:44.630Z,25.03
2022-12-22T11:49:28.969Z,25.13
2022-12-22T11:52:14.817Z,21.83
2022-12-22T11:55:05.414Z,25.20
2022-12-22T11:57:40.853Z,20.33
2022-12-22T12:00:12.080Z,18.43
2022-12-22T12:03:32.420Z,19.40
2022-12-22T12:06:15.901Z,19.10
2022-12-22T12:09:01.222Z,15.13
2022-12-22T12:11:40.498Z,15.40
2022-12-22T12:14:20.849Z,13.27
2022-12-22T12:16:55.591Z,12.37
2022-12-22T12:19:59.749Z,9.87
2022-12-22T12:22:41.473Z,10.77
2022-12-22T12:25:26.184Z,10.63
2022-12-22T12:28:07.328Z,7.10
2022-12-22T12:30:40.105Z,7.83
2022-12-22T12:33:15.424Z,8.57
2022-12-22T12:40:33.030Z,7.57
2022-12-22T12:43:02.320Z,7.30
2022-12-22T12:45:34.897Z,6.60
2022-12-22T12:48:36.390Z,6.43
2022-12-22T12:55:33.373Z,5.87
2022-12-22T12:58:04.272Z,6.43
2022-12-22T13:00:49.704Z,13.90
2022-12-22T13:06:52.155Z,8.30
2022-12-22T13:12:39.817Z,5.17
2022-12-22T13:15:29.118Z,7.30
2022-12-22T13:17:58.337Z,6.87
2022-12-22T13:20:30.864Z,4.67
2022-12-22T13:23:01.459Z,6.17
2022-12-22T13:25:42.536Z,5.43
2022-12-22T13:28:17.234Z,5.83
2022-12-22T13:30:49.420Z,7.07
2022-12-22T13:33:22.945Z,5.30
2022-12-22T13:35:58.487Z,4.63
2022-12-22T13:38:32.065Z,4.40
2022-12-22T13:41:03.246Z,3.67
2022-12-22T13:43:34.204Z,6.50
2022-12-22T13:46:04.313Z,4.90
2022-12-22T13:48:43.931Z,4.83
2022-12-22T13:51:19.765Z,4.43
2022-12-22T13:54:09.701Z,6.43
2022-12-22T13:56:42.808Z,5.83
2022-12-22T13:59:27.701Z,2.37
2022-12-22T14:02:00.094Z,2.60
2022-12-22T14:04:31.011Z,2.30
2022-12-22T14:07:10.611Z,5.73
2022-12-22T14:14:10.006Z,3.17
2022-12-22T14:16:46.674Z,2.30
2022-12-22T14:23:48.853Z,2.73
2022-12-22T14:26:23.363Z,3.13
2022-12-22T14:28:54.680Z,2.27
2022-12-22T14:31:23.054Z,2.70
2022-12-22T14:33:56.981Z,2.63
2022-12-22T14:36:26.580Z,1.83
2022-12-22T14:38:56.515Z,2.93
2022-12-22T14:41:44.299Z,3.80
2022-12-22T14:44:16.873Z,2.03
2022-12-22T14:46:48.489Z,2.60
2022-12-22T14:49:20.209Z,3.33
2022-12-22T14:52:00.803Z,4.07
2022-12-22T14:54:30.071Z,1.60
2022-12-22T14:57:03.491Z,2.13
2022-12-22T14:59:32.382Z,3.10
2022-12-22T15:02:02.716Z,4.50
2022-12-22T15:04:32.963Z,2.87
2022-12-22T15:07:45.847Z,2.77
2022-12-22T15:10:15.183Z,3.20
2022-12-22T15:12:44.629Z,3.20
2022-12-22T15:15:21.255Z,2.10
2022-12-22T15:17:51.933Z,4.00
2022-12-22T15:20:23.801Z,4.03
2022-12-22T15:22:52.317Z,2.63
2022-12-22T15:25:22.698Z,3.17
2022-12-22T15:27:51.992Z,4.73
2022-12-22T15:30:28.643Z,5.00
2022-12-22T15:32:57.565Z,4.03
2022-12-22T15:35:30.705Z,2.50
2022-12-22T15:37:59.474Z,4.27
2022-12-22T15:40:29.349Z,5.43
2022-12-22T15:42:57.714Z,5.07
2022-12-22T15:45:26.018Z,4.73
2022-12-22T15:47:55.648Z,6.60
2022-12-22T15:50:36.669Z,4.40
2022-12-22T15:53:09.228Z,5.07
2022-12-22T15:55:41.916Z,5.23
2022-12-22T15:58:14.491Z,5.30
2022-12-22T16:00:43.014Z,4.17
2022-12-22T16:03:13.250Z,3.80
2022-12-22T16:05:43.388Z,5.23
2022-12-22T16:08:18.196Z,6.43
2022-12-22T16:10:47.968Z,6.10
2022-12-22T16:13:18.033Z,4.43
2022-12-22T16:15:46.408Z,5.27
2022-12-22T16:18:14.802Z,3.37
2022-12-22T16:20:45.410Z,6.10
2022-12-22T16:23:18.620Z,6.50
2022-12-22T16:25:47.675Z,4.27
2022-12-22T16:28:19.052Z,5.13
2022-12-22T16:30:48.355Z,5.60
2022-12-22T16:33:17.468Z,3.77
2022-12-22T16:35:47.245Z,5.47
2022-12-22T16:38:18.929Z,5.93
2022-12-22T16:40:51.443Z,6.67
2022-12-22T16:46:15.175Z,4.30
2022-12-22T16:48:46.188Z,4.20
2022-12-22T16:51:20.451Z,4.40
2022-12-22T16:53:49.208Z,5.57
2022-12-22T16:56:20.138Z,4.83
2022-12-22T16:58:49.312Z,3.77
2022-12-22T17:01:32.970Z,4.37
2022-12-22T17:04:05.336Z,4.03
2022-12-22T17:06:35.939Z,6.83
2022-12-22T17:09:05.761Z,4.17
2022-12-22T17:11:34.541Z,89.47
2022-12-22T17:14:08.713Z,17.87
2022-12-22T17:16:37.084Z,11.47
2022-12-22T17:19:06.743Z,11.33
2022-12-22T17:21:36.557Z,15.97
2022-12-22T17:24:05.051Z,11.00
2022-12-22T17:26:35.387Z,25.10
2022-12-22T17:29:03.788Z,9.70
2022-12-22T17:31:32.188Z,11.30
2022-12-22T17:34:00.564Z,9.37
2022-12-22T17:36:34.909Z,11.57
2022-12-22T17:39:05.272Z,6.87
2022-12-22T17:41:34.299Z,4.33
2022-12-22T17:44:02.665Z,7.97
2022-12-22T17:46:31.124Z,6.43
2022-12-22T17:48:59.497Z,6.70
2022-12-22T17:51:29.394Z,11.17
2022-12-22T17:53:59.325Z,8.00
2022-12-22T17:56:31.074Z,7.77
2022-12-22T17:58:59.435Z,7.33
2022-12-22T18:01:29.910Z,7.07
2022-12-22T18:03:58.844Z,8.80
2022-12-22T18:06:29.918Z,9.37
2022-12-22T18:08:58.892Z,7.03
2022-12-22T18:11:28.820Z,7.80
2022-12-22T18:13:59.405Z,9.13
2022-12-22T18:16:27.906Z,7.50
2022-12-22T18:18:56.235Z,8.53
2022-12-22T18:21:26.317Z,7.67
2022-12-22T18:23:54.873Z,8.57
2022-12-22T18:26:26.212Z,8.37
2022-12-22T18:28:56.689Z,7.13
2022-12-22T18:31:25.913Z,5.20
2022-12-22T18:33:54.572Z,8.43
2022-12-22T18:36:29.297Z,8.13
2022-12-22T18:38:58.793Z,8.87
2022-12-22T18:41:30.409Z,6.77
2022-12-22T18:44:00.130Z,7.90
2022-12-22T18:46:28.566Z,5.90
2022-12-22T18:49:03.467Z,6.93
2022-12-22T18:51:33.976Z,5.83
2022-12-22T18:54:02.318Z,7.37
2022-12-22T18:56:30.622Z,7.20
2022-12-22T18:59:00.317Z,6.10
2022-12-22T19:01:29.174Z,8.77
2022-12-22T19:03:58.899Z,7.83
2022-12-22T19:06:27.537Z,6.43
2022-12-22T19:08:55.890Z,9.37
2022-12-22T19:11:28.640Z,8.53
2022-12-22T19:13:56.990Z,9.80
2022-12-22T19:16:27.898Z,9.10
2022-12-22T19:18:57.943Z,9.07
2022-12-22T19:21:26.331Z,7.90
2022-12-22T19:23:54.767Z,10.50
2022-12-22T19:26:25.422Z,11.93
2022-12-22T19:28:56.306Z,8.07
2022-12-22T19:31:28.509Z,10.63
2022-12-22T19:33:58.388Z,11.23
2022-12-22T19:36:29.894Z,10.47
2022-12-22T19:39:04.632Z,10.00
2022-12-22T19:41:39.911Z,10.23
2022-12-22T19:44:18.880Z,9.90
2022-12-22T19:46:48.991Z,13.83
2022-12-22T19:49:18.568Z,12.87
2022-12-22T19:51:47.235Z,11.47
2022-12-22T19:54:15.747Z,9.67
2022-12-22T19:56:47.229Z,10.83
2022-12-22T19:59:28.237Z,12.77
2022-12-22T20:02:01.517Z,13.63
2022-12-22T20:04:30.078Z,14.07
2022-12-22T20:06:58.525Z,11.57
2022-12-22T20:09:26.845Z,13.57
2022-12-22T20:11:55.255Z,11.60
2022-12-22T20:14:23.640Z,14.57
2022-12-22T20:16:51.954Z,13.53
2022-12-22T20:19:21.735Z,13.60
2022-12-22T20:21:50.040Z,13.60
2022-12-22T20:24:23.274Z,12.60
2022-12-22T20:26:54.502Z,14.20
2022-12-22T20:29:25.116Z,17.57
2022-12-22T20:31:53.928Z,14.43
2022-12-22T20:34:23.690Z,15.17
2022-12-22T20:36:52.080Z,16.00
2022-12-22T20:39:20.788Z,17.40
2022-12-22T20:41:53.261Z,18.17
2022-12-22T20:44:22.785Z,18.60
2022-12-22T20:46:51.312Z,16.53
2022-12-22T20:49:19.648Z,15.93
2022-12-22T20:51:49.350Z,17.27
2022-12-22T20:54:17.908Z,17.87
2022-12-22T20:56:46.416Z,17.33
2022-12-22T20:59:17.875Z,16.20
2022-12-22T21:01:46.948Z,15.10
2022-12-22T21:04:15.998Z,14.07
2022-12-22T21:06:47.957Z,16.30
2022-12-22T21:09:18.564Z,23.00
2022-12-22T21:11:47.379Z,18.93
2022-12-22T21:14:16.293Z,16.50
2022-12-22T21:16:45.121Z,19.27
2022-12-22T21:19:18.475Z,16.70
2022-12-22T21:21:47.153Z,16.43
2022-12-22T21:24:18.549Z,19.10
2022-12-22T21:26:50.087Z,18.17
2022-12-22T21:29:21.467Z,18.13
2022-12-22T21:31:49.851Z,16.30
2022-12-22T21:34:18.318Z,17.67
2022-12-22T21:36:49.861Z,15.57
2022-12-22T21:39:28.878Z,19.97
2022-12-22T21:42:04.562Z,17.20
2022-12-22T21:44:34.995Z,17.10
2022-12-22T21:47:03.849Z,19.00
2022-12-22T21:49:34.209Z,19.00
2022-12-22T21:52:02.579Z,17.37
2022-12-22T21:54:32.293Z,16.83
2022-12-22T21:57:00.685Z,18.97
2022-12-22T21:59:28.967Z,21.13
2022-12-22T22:01:57.523Z,20.83
2022-12-22T22:04:26.063Z,17.27
2022-12-22T22:06:54.390Z,19.63
2022-12-22T22:09:23.116Z,14.70
2022-12-22T22:12:10.093Z,19.33
2022-12-22T22:14:38.507Z,17.43
2022-12-22T22:17:06.842Z,17.37
2022-12-22T22:19:35.253Z,15.30
2022-12-22T22:22:04.290Z,13.07
2022-12-22T22:24:32.759Z,17.20
2022-12-22T22:27:02.490Z,14.47
2022-12-22T22:29:30.855Z,15.23
2022-12-22T22:31:59.133Z,15.80
2022-12-22T22:34:27.447Z,12.10
2022-12-22T22:36:55.790Z,9.87
2022-12-22T22:39:24.309Z,13.20
2022-12-22T22:41:52.787Z,14.57
2022-12-22T22:44:22.564Z,12.93
2022-12-22T22:46:50.960Z,14.77
2022-12-22T22:49:24.233Z,12.10
2022-12-22T22:51:56.509Z,12.73
2022-12-22T22:54:24.766Z,12.93
2022-12-22T22:56:54.685Z,11.43
2022-12-22T22:59:24.593Z,10.07
2022-12-22T23:02:07.878Z,11.73
2022-12-22T23:04:51.073Z,11.50
2022-12-22T23:07:19.423Z,11.57
2022-12-22T23:09:47.669Z,9.37
2022-12-22T23:12:16.049Z,7.30
2022-12-22T23:14:45.700Z,7.97
2022-12-22T23:17:14.055Z,8.83
2022-12-22T23:19:42.291Z,10.00
2022-12-22T23:22:10.821Z,4.80
2022-12-22T23:24:39.210Z,6.90
2022-12-22T23:27:07.612Z,6.10
2022-12-22T23:29:37.250Z,5.30
2022-12-22T23:32:07.414Z,6.07
2022-12-22T23:34:35.703Z,5.33
2022-12-22T23:37:04.678Z,6.00
2022-12-22T23:39:33.052Z,7.53
2022-12-22T23:42:01.331Z,4.83
2022-12-22T23:44:29.662Z,6.50
2022-12-22T23:46:57.946Z,5.67
2022-12-22T23:49:27.700Z,6.27
2022-12-22T23:51:55.979Z,5.27
2022-12-22T23:54:24.412Z,4.60
2022-12-22T23:56:52.731Z,5.20
2022-12-22T23:59:21.150Z,4.90
